Arlington, Minnesota
Current Conditions -  °F | °C
As of 10:14 PM on Wednesday 22 Oct 2014 (Local Time) from KGYL Reporting Station
Light Rain Light Rain  
Wind Chill: 58°   Ceiling: 10000
Heat Index: 58°   Visibility: 10mi
Dew Point: 46°   Wind: 8mph
Humidity: 63%   Direction: 160°SSE
Pressure: 30"   Gusts: NA
Location:  44.61°N, 94.08°W
Report Text: KGYL 230314Z AUTO 16007KT 10SM -RA SCT035 SCT050 BKN100 15/08 A3000 RMK AO2 T01460077
Loading
Personal Weather Stations






























Interactive Weather Map
Tropical Storm Tracking
New forecast layout! Learn more

10-Day Weather Forecast

Advertisements
Track Severe Weather on mobile